Terminal Aerodrome Forecast
Issued by NWS Greer, SC

Home | Current Version | Previous Version | Text Only | Print | Product List | Glossary On
Versions: 1 2 3 4 5 6 7 8 9 10 11 12 13 14 15 16
000
FTUS42 KGSP 311138
TAFAVL
TAF
KAVL 311138Z 3112/0112 32003KT P6SM SCT100
     FM311900 13004KT P6SM VCTS BKN045CB
     FM312100 15004KT P6SM BKN045 PROB30 3121/0102 4SM -TSRA
      OVC025CB
     FM010200 00000KT P6SM BKN080
     FM010900 VRB02KT 4SM BR SCT120=

USA.gov is the U.S. government's official web portal to all federal, state and local government web resources and services.